Time;durP1;ratioP1;P1;durP2;ratioP2;P2;SDS_P1;SDS_P2;PMS_P1;PMS_P2;Temp;Humidity;BMP_temperature;BMP_pressure;BME280_temperature;BME280_humidity;BME280_pressure;Samples;Min_cycle;Max_cycle;Signal;HPM_P1;HPM_P2
2021/08/25 00:01:29;;;;;;;12.75;11.75;;;14.40;80.60;;;;;;4933833;29;20047;-72
2021/08/25 00:04:01;;;;;;;12.70;11.63;;;14.40;81.10;;;;;;4932987;29;20502;-73
2021/08/25 00:06:33;;;;;;;13.07;12.07;;;14.40;80.80;;;;;;4931562;29;20126;-72
2021/08/25 00:09:06;;;;;;;12.32;11.43;;;14.30;81.10;;;;;;4934983;29;20159;-72
2021/08/25 00:11:37;;;;;;;12.45;11.45;;;14.30;81.20;;;;;;4933299;29;20044;-72
2021/08/25 00:14:10;;;;;;;12.02;11.13;;;14.30;81.60;;;;;;4937722;29;20047;-72
2021/08/25 00:16:42;;;;;;;13.10;12.10;;;14.30;81.60;;;;;;4938361;29;20047;-71
2021/08/25 00:19:14;;;;;;;12.70;11.60;;;14.20;81.70;;;;;;4936492;29;20050;-72
2021/08/25 00:21:46;;;;;;;12.38;11.48;;;14.20;81.70;;;;;;4935190;29;20052;-72
2021/08/25 00:24:18;;;;;;;12.20;11.23;;;14.10;81.80;;;;;;4937192;29;20051;-71
2021/08/25 00:26:49;;;;;;;13.38;12.23;;;14.20;81.60;;;;;;4934405;29;20774;-71
2021/08/25 00:29:21;;;;;;;12.68;11.68;;;14.20;81.30;;;;;;4929613;29;20597;-71
2021/08/25 00:31:53;;;;;;;12.85;11.85;;;14.10;82.60;;;;;;4937243;29;20045;-72
2021/08/25 00:34:25;;;;;;;13.27;12.27;;;14.00;82.50;;;;;;4935216;29;20048;-72
2021/08/25 00:36:58;;;;;;;12.73;11.73;;;14.00;82.80;;;;;;4936312;29;20883;-73
2021/08/25 00:39:30;;;;;;;12.60;11.60;;;14.00;82.80;;;;;;4937459;29;20153;-72
2021/08/25 00:42:02;;;;;;;12.70;11.70;;;14.00;82.90;;;;;;4935956;29;20065;-73
2021/08/25 00:44:33;;;;;;;12.60;11.70;;;13.90;83.20;;;;;;4937470;29;20821;-72
2021/08/25 00:47:06;;;;;;;12.93;11.93;;;14.00;83.00;;;;;;4938298;29;20043;-72
2021/08/25 00:49:38;;;;;;;13.30;12.30;;;13.90;83.20;;;;;;4939458;29;20595;-73
2021/08/25 00:52:09;;;;;;;13.57;12.55;;;13.90;83.60;;;;;;4933699;29;20048;-72
2021/08/25 00:54:41;;;;;;;14.02;12.65;;;13.90;82.80;;;;;;4936636;29;20055;-72
2021/08/25 00:57:13;;;;;;;13.05;11.95;;;13.90;83.20;;;;;;4935254;29;20052;-73
2021/08/25 00:59:45;;;;;;;12.60;11.50;;;13.90;83.40;;;;;;4935756;29;20070;-72
2021/08/25 01:02:29;;;;;;;13.05;12.05;;;13.90;83.30;;;;;;4938609;29;20530;-72
2021/08/25 01:05:04;;;;;;;13.25;12.25;;;13.90;83.20;;;;;;4934450;29;20050;-72
2021/08/25 01:07:37;;;;;;;13.30;12.20;;;13.90;83.20;;;;;;4933851;29;20063;-72
2021/08/25 01:10:22;;;;;;;12.48;11.52;;;13.90;82.80;;;;;;4934632;29;20056;-72
2021/08/25 01:13:02;;;;;;;12.65;11.65;;;14.00;82.30;;;;;;4935922;29;20136;-71
2021/08/25 01:15:36;;;;;;;12.75;11.75;;;14.00;82.60;;;;;;4935153;29;20800;-70
2021/08/25 01:18:16;;;;;;;13.02;11.98;;;14.00;82.40;;;;;;4933384;29;20135;-71
2021/08/25 01:20:50;;;;;;;12.68;11.68;;;14.00;82.40;;;;;;4936013;29;20051;-72
2021/08/25 01:23:23;;;;;;;12.95;11.95;;;14.00;82.50;;;;;;4935914;29;20553;-71
2021/08/25 01:25:58;;;;;;;12.75;11.75;;;14.00;82.00;;;;;;4935549;29;20120;-71
2021/08/25 01:28:35;;;;;;;12.40;11.50;;;14.00;82.50;;;;;;4936575;29;20813;-71
2021/08/25 01:31:07;;;;;;;13.25;12.20;;;13.90;82.50;;;;;;4935116;29;20158;-71
2021/08/25 01:33:39;;;;;;;12.93;11.85;;;13.90;82.60;;;;;;4935225;29;20075;-71
2021/08/25 01:36:18;;;;;;;13.32;12.32;;;13.80;83.30;;;;;;4936117;29;20888;-71
2021/08/25 01:38:54;;;;;;;13.48;12.48;;;13.80;83.90;;;;;;4937155;29;20060;-72
2021/08/25 01:41:27;;;;;;;13.18;12.18;;;13.80;83.40;;;;;;4935755;29;20097;-72
2021/08/25 01:44:01;;;;;;;12.73;11.80;;;13.80;83.40;;;;;;4937774;29;20517;-72
2021/08/25 01:46:35;;;;;;;13.55;12.45;;;13.80;82.90;;;;;;4934325;29;20528;-72
2021/08/25 01:49:10;;;;;;;13.40;12.40;;;13.80;82.90;;;;;;4934954;29;20706;-73
2021/08/25 01:51:42;;;;;;;13.15;12.15;;;13.80;83.70;;;;;;4935501;29;20185;-72
2021/08/25 01:54:14;;;;;;;12.95;11.95;;;13.70;84.30;;;;;;4935092;29;20120;-73
2021/08/25 01:56:46;;;;;;;13.65;12.48;;;13.70;84.00;;;;;;4933763;29;20052;-72
2021/08/25 01:59:18;;;;;;;12.85;11.85;;;13.60;84.10;;;;;;4935915;29;20052;-72
2021/08/25 02:01:50;;;;;;;12.90;11.90;;;13.70;83.60;;;;;;4934601;29;20058;-72
2021/08/25 02:04:22;;;;;;;12.85;11.85;;;13.60;84.50;;;;;;4936435;29;20426;-72
2021/08/25 02:06:54;;;;;;;12.52;11.52;;;13.60;84.60;;;;;;4933725;29;20058;-72
2021/08/25 02:09:26;;;;;;;12.23;11.23;;;13.60;84.10;;;;;;4937748;29;20051;-73
2021/08/25 02:11:58;;;;;;;12.65;11.55;;;13.70;83.90;;;;;;4934809;29;20143;-72
2021/08/25 02:14:30;;;;;;;12.70;11.70;;;13.70;84.20;;;;;;4935779;29;20048;-73
2021/08/25 02:17:06;;;;;;;12.32;11.40;;;13.70;83.80;;;;;;4934055;29;20528;-73
2021/08/25 02:19:37;;;;;;;12.77;11.77;;;13.70;83.80;;;;;;4937652;29;20118;-73
2021/08/25 02:22:09;;;;;;;12.50;11.60;;;13.80;83.90;;;;;;4938664;29;20039;-72
2021/08/25 02:24:41;;;;;;;12.02;11.13;;;13.80;83.70;;;;;;4935764;29;20042;-72
2021/08/25 02:27:13;;;;;;;12.23;11.18;;;13.80;83.60;;;;;;4933057;29;20067;-72
2021/08/25 02:29:45;;;;;;;12.40;11.40;;;13.80;83.50;;;;;;4934655;29;20113;-72
2021/08/25 02:32:17;;;;;;;12.52;11.63;;;13.80;83.30;;;;;;4935111;29;20058;-72
2021/08/25 02:34:49;;;;;;;13.20;12.10;;;13.80;83.30;;;;;;4937196;29;20051;-73
2021/08/25 02:37:21;;;;;;;12.73;11.73;;;13.80;83.40;;;;;;4935353;29;20142;-73
2021/08/25 02:39:53;;;;;;;12.50;11.60;;;13.70;83.20;;;;;;4935638;29;20139;-72
2021/08/25 02:42:25;;;;;;;13.13;12.05;;;13.60;83.50;;;;;;4937611;29;20146;-72
2021/08/25 02:44:57;;;;;;;12.32;11.43;;;13.60;83.20;;;;;;4935518;29;20051;-72
2021/08/25 02:47:29;;;;;;;12.95;11.95;;;13.60;83.10;;;;;;4934619;29;20134;-71
2021/08/25 02:50:01;;;;;;;12.98;11.98;;;13.60;82.90;;;;;;4933158;29;20742;-73
2021/08/25 02:52:33;;;;;;;12.27;11.20;;;13.60;82.70;;;;;;4934817;29;20085;-71
2021/08/25 02:55:05;;;;;;;12.50;11.48;;;13.60;82.90;;;;;;4934042;29;20068;-71
2021/08/25 02:57:37;;;;;;;12.60;11.70;;;13.60;82.80;;;;;;4933340;29;20130;-71
2021/08/25 03:00:11;;;;;;;12.35;11.35;;;13.70;82.60;;;;;;4933374;29;20146;-71
2021/08/25 03:02:43;;;;;;;12.73;11.73;;;13.70;82.90;;;;;;4933564;29;20450;-72
2021/08/25 03:05:15;;;;;;;11.77;10.88;;;13.60;82.90;;;;;;4933636;29;20043;-71
2021/08/25 03:07:47;;;;;;;11.75;10.85;;;13.60;82.80;;;;;;4934529;29;20079;-71
2021/08/25 03:10:19;;;;;;;12.25;11.25;;;13.70;82.80;;;;;;4940498;29;20051;-71
2021/08/25 03:12:51;;;;;;;11.77;10.88;;;13.70;82.70;;;;;;4932917;29;20079;-71
2021/08/25 03:15:23;;;;;;;11.30;10.40;;;13.70;82.90;;;;;;4931601;29;20039;-71
2021/08/25 03:17:55;;;;;;;11.82;10.82;;;13.70;84.10;;;;;;4932515;29;20582;-71
2021/08/25 03:20:27;;;;;;;13.10;11.70;;;13.70;83.40;;;;;;4933251;29;20051;-70
2021/08/25 03:22:59;;;;;;;12.20;11.30;;;13.70;83.80;;;;;;4935087;29;20076;-71
2021/08/25 03:25:31;;;;;;;12.27;11.30;;;13.60;83.40;;;;;;4936983;29;20066;-70
2021/08/25 03:28:03;;;;;;;12.30;11.30;;;13.60;83.80;;;;;;4931507;29;20097;-71
2021/08/25 03:30:35;;;;;;;12.40;11.30;;;13.60;83.90;;;;;;4934353;29;20043;-72
2021/08/25 03:33:07;;;;;;;12.32;11.43;;;13.60;84.20;;;;;;4933149;29;20043;-71
2021/08/25 03:35:39;;;;;;;12.68;11.75;;;13.60;83.70;;;;;;4931252;29;20809;-70
2021/08/25 03:38:10;;;;;;;12.40;11.40;;;13.60;83.50;;;;;;4932525;29;20128;-71
2021/08/25 03:40:42;;;;;;;12.63;11.63;;;13.60;83.50;;;;;;4931783;29;20151;-71
2021/08/25 03:43:14;;;;;;;12.57;11.40;;;13.60;84.00;;;;;;4934669;29;20058;-72
2021/08/25 03:45:46;;;;;;;12.73;11.60;;;13.60;84.30;;;;;;4931607;29;20134;-70
2021/08/25 03:48:18;;;;;;;12.02;11.13;;;13.60;84.40;;;;;;4932512;29;20047;-71
2021/08/25 03:50:50;;;;;;;12.98;11.88;;;13.70;84.30;;;;;;4933257;29;20061;-72
2021/08/25 03:53:22;;;;;;;12.40;11.50;;;13.60;84.10;;;;;;4926353;30;20123;-71
2021/08/25 03:55:54;;;;;;;12.80;11.82;;;13.60;84.30;;;;;;4933985;29;20505;-72
2021/08/25 03:58:26;;;;;;;13.05;12.05;;;13.60;84.50;;;;;;4932914;29;20055;-72
2021/08/25 04:00:58;;;;;;;12.77;11.77;;;13.60;84.80;;;;;;4936012;29;20146;-72
2021/08/25 04:03:30;;;;;;;12.20;11.13;;;13.60;84.30;;;;;;4934575;29;20915;-72
2021/08/25 04:06:03;;;;;;;12.07;11.18;;;13.50;84.50;;;;;;4931283;29;20141;-73
2021/08/25 04:08:35;;;;;;;12.10;11.20;;;13.50;84.10;;;;;;4935289;29;20077;-71
2021/08/25 04:11:07;;;;;;;12.30;11.27;;;13.50;84.10;;;;;;4933191;29;20042;-72
2021/08/25 04:13:39;;;;;;;12.32;11.32;;;13.50;83.70;;;;;;4933667;29;20134;-72
2021/08/25 04:16:10;;;;;;;11.68;10.73;;;13.50;83.80;;;;;;4934696;29;20563;-72
2021/08/25 04:18:42;;;;;;;12.15;11.20;;;13.50;83.60;;;;;;4935289;29;20507;-71
2021/08/25 04:21:14;;;;;;;12.27;11.18;;;13.50;83.20;;;;;;4934280;29;20085;-72
2021/08/25 04:23:46;;;;;;;11.82;10.93;;;13.50;83.30;;;;;;4933801;29;20127;-72
2021/08/25 04:26:19;;;;;;;11.77;10.88;;;13.50;83.10;;;;;;4931993;29;20053;-72
2021/08/25 04:28:50;;;;;;;11.63;10.73;;;13.40;82.80;;;;;;4935142;29;20493;-71
2021/08/25 04:31:22;;;;;;;11.80;10.90;;;13.50;82.80;;;;;;4934284;29;20910;-72
2021/08/25 04:33:54;;;;;;;11.27;10.38;;;13.40;82.50;;;;;;4935442;29;20623;-72
2021/08/25 04:36:26;;;;;;;11.32;10.40;;;13.40;82.20;;;;;;4932929;29;20105;-72
2021/08/25 04:38:58;;;;;;;11.32;10.38;;;13.40;82.10;;;;;;4933105;29;20059;-72
2021/08/25 04:41:30;;;;;;;11.45;10.55;;;13.40;82.20;;;;;;4931911;29;20422;-72
2021/08/25 04:44:02;;;;;;;11.88;10.98;;;13.30;82.10;;;;;;4935045;29;20141;-72
2021/08/25 04:46:34;;;;;;;10.85;10.02;;;13.30;82.10;;;;;;4932443;29;20415;-71
2021/08/25 04:49:06;;;;;;;11.30;10.40;;;13.30;82.10;;;;;;4933205;29;20051;-72
2021/08/25 04:51:38;;;;;;;11.10;10.25;;;13.30;82.00;;;;;;4930305;29;20043;-72
2021/08/25 04:54:10;;;;;;;10.93;10.02;;;13.30;82.30;;;;;;4934145;29;20146;-72
2021/08/25 04:56:42;;;;;;;10.55;9.75;;;13.30;82.80;;;;;;4930617;29;20043;-71
2021/08/25 04:59:14;;;;;;;10.55;9.75;;;13.20;83.20;;;;;;4935564;29;20166;-71
2021/08/25 05:01:46;;;;;;;10.95;10.10;;;13.10;83.30;;;;;;4934650;29;20086;-74
2021/08/25 05:04:18;;;;;;;10.73;9.88;;;13.10;84.40;;;;;;4934368;29;20051;-71
2021/08/25 05:06:50;;;;;;;11.23;10.20;;;13.10;83.60;;;;;;4935960;29;20160;-71
2021/08/25 05:09:22;;;;;;;11.07;10.18;;;13.10;83.60;;;;;;4938462;29;20048;-72
2021/08/25 05:11:54;;;;;;;11.02;10.05;;;13.10;83.90;;;;;;4934689;29;20211;-71
2021/08/25 05:14:25;;;;;;;10.98;9.98;;;13.00;83.80;;;;;;4935477;29;20047;-71
2021/08/25 05:16:57;;;;;;;11.18;10.20;;;13.20;83.50;;;;;;4931891;29;20165;-72
2021/08/25 05:19:29;;;;;;;11.35;10.30;;;13.30;84.40;;;;;;4932849;29;20798;-71
2021/08/25 05:22:02;;;;;;;11.45;10.43;;;13.40;84.00;;;;;;4935058;29;20370;-71
2021/08/25 05:24:34;;;;;;;11.85;10.95;;;13.50;84.00;;;;;;4933050;29;20047;-72
2021/08/25 05:27:06;;;;;;;12.35;11.25;;;13.60;83.60;;;;;;4934311;29;20075;-71
2021/08/25 05:29:37;;;;;;;11.88;10.98;;;13.60;83.10;;;;;;4935596;29;20053;-72
2021/08/25 05:32:09;;;;;;;12.13;11.05;;;13.70;83.50;;;;;;4934857;29;20650;-72
2021/08/25 05:34:41;;;;;;;11.90;11.00;;;13.70;84.60;;;;;;4934312;29;20477;-71
2021/08/25 05:37:13;;;;;;;11.60;10.60;;;13.80;83.90;;;;;;4933516;29;20047;-72
2021/08/25 05:39:45;;;;;;;11.90;10.70;;;13.90;83.50;;;;;;4932685;29;20043;-70
2021/08/25 05:42:17;;;;;;;12.82;11.80;;;14.00;83.80;;;;;;4935947;29;20059;-72
2021/08/25 05:44:49;;;;;;;12.13;11.13;;;14.10;83.70;;;;;;4936183;29;20059;-72
2021/08/25 05:47:21;;;;;;;12.00;11.00;;;14.30;84.20;;;;;;4931808;29;20056;-73
2021/08/25 05:49:52;;;;;;;12.13;11.13;;;14.30;83.90;;;;;;4934463;29;20348;-72
2021/08/25 05:52:24;;;;;;;11.77;10.88;;;14.40;83.70;;;;;;4932746;29;20058;-72
2021/08/25 05:54:56;;;;;;;12.40;11.40;;;14.60;83.60;;;;;;4933260;29;20556;-72
2021/08/25 05:57:28;;;;;;;12.00;11.10;;;14.80;83.50;;;;;;4932894;29;20879;-72
2021/08/25 06:00:00;;;;;;;12.60;11.63;;;15.00;82.80;;;;;;4933272;29;20580;-72
2021/08/25 06:02:41;;;;;;;12.30;11.40;;;15.20;83.50;;;;;;4936079;29;20739;-72
2021/08/25 06:05:13;;;;;;;12.70;11.57;;;15.50;80.60;;;;;;4934160;29;20051;-73
2021/08/25 06:07:45;;;;;;;12.05;11.05;;;15.60;81.10;;;;;;4933458;29;20052;-72
2021/08/25 06:10:17;;;;;;;12.35;11.45;;;15.60;80.40;;;;;;4935151;29;20418;-71
2021/08/25 06:12:49;;;;;;;12.07;11.18;;;15.60;80.40;;;;;;4935227;29;20477;-72
2021/08/25 06:15:21;;;;;;;12.05;11.15;;;15.80;79.70;;;;;;4934436;29;20673;-73
2021/08/25 06:17:53;;;;;;;12.88;11.85;;;15.90;80.80;;;;;;4933826;29;20570;-72
2021/08/25 06:20:25;;;;;;;12.57;11.57;;;15.90;80.40;;;;;;4932469;29;20135;-72
2021/08/25 06:22:57;;;;;;;12.15;11.23;;;16.00;80.20;;;;;;4934725;29;20126;-72
2021/08/25 06:25:29;;;;;;;12.43;11.52;;;16.00;80.30;;;;;;4935065;29;20066;-72
2021/08/25 06:28:02;;;;;;;12.35;11.45;;;16.20;80.60;;;;;;4934846;29;20148;-71
2021/08/25 06:30:34;;;;;;;12.50;11.55;;;16.30;79.90;;;;;;4936674;29;20112;-72
2021/08/25 06:33:05;;;;;;;12.38;11.27;;;16.40;79.80;;;;;;4934796;29;20043;-72
2021/08/25 06:35:38;;;;;;;12.43;11.38;;;16.30;79.50;;;;;;4934555;29;20047;-70
2021/08/25 06:38:10;;;;;;;12.68;11.68;;;16.30;78.60;;;;;;4934539;29;20154;-71
2021/08/25 06:40:41;;;;;;;12.88;11.88;;;16.40;79.60;;;;;;4935540;29;20043;-72
2021/08/25 06:43:13;;;;;;;12.85;11.85;;;16.60;78.80;;;;;;4934222;29;20118;-72
2021/08/25 06:45:45;;;;;;;13.15;12.02;;;16.80;78.40;;;;;;4935554;29;20803;-72
2021/08/25 06:48:17;;;;;;;12.05;11.15;;;17.00;77.60;;;;;;4933850;29;20223;-72
2021/08/25 06:50:49;;;;;;;12.73;11.77;;;17.10;77.60;;;;;;4937758;29;20071;-72
2021/08/25 06:53:21;;;;;;;12.38;11.48;;;17.20;76.60;;;;;;4934792;29;20082;-72
2021/08/25 06:55:53;;;;;;;12.88;11.88;;;17.40;75.20;;;;;;4934808;29;20174;-73
2021/08/25 06:58:27;;;;;;;12.88;11.80;;;17.50;76.70;;;;;;4935810;29;20130;-72
2021/08/25 07:00:59;;;;;;;13.38;12.38;;;17.70;76.00;;;;;;4932408;29;20169;-72
2021/08/25 07:03:31;;;;;;;13.10;12.05;;;17.80;76.10;;;;;;4935153;29;20175;-72
2021/08/25 07:06:03;;;;;;;13.52;12.52;;;17.90;74.10;;;;;;4935134;29;20051;-72
2021/08/25 07:08:35;;;;;;;14.30;13.20;;;18.00;75.10;;;;;;4936716;29;20122;-71
2021/08/25 07:11:07;;;;;;;13.25;12.15;;;18.10;75.30;;;;;;4933017;29;20055;-72
2021/08/25 07:13:39;;;;;;;13.43;12.43;;;18.10;75.10;;;;;;4934289;29;20178;-72
2021/08/25 07:16:14;;;;;;;14.07;12.95;;;18.10;74.70;;;;;;4935071;29;20055;-73
2021/08/25 07:18:47;;;;;;;13.13;12.20;;;18.20;73.50;;;;;;4935150;29;20541;-73
2021/08/25 07:21:19;;;;;;;14.35;13.25;;;18.40;73.90;;;;;;4933975;29;20149;-73
2021/08/25 07:23:54;;;;;;;13.38;12.38;;;18.40;73.40;;;;;;4935583;29;20138;-74
2021/08/25 07:26:26;;;;;;;13.57;12.48;;;18.50;73.30;;;;;;4933518;29;20079;-72
2021/08/25 07:28:58;;;;;;;13.65;12.65;;;18.50;71.20;;;;;;4933823;29;20051;-72
2021/08/25 07:31:30;;;;;;;13.20;12.20;;;18.70;72.60;;;;;;4934766;29;20310;-71
2021/08/25 07:34:04;;;;;;;13.20;12.20;;;18.80;71.90;;;;;;4932780;29;20122;-72
2021/08/25 07:36:36;;;;;;;13.40;12.40;;;18.90;70.90;;;;;;4933573;29;20036;-72
2021/08/25 07:39:08;;;;;;;13.57;12.57;;;18.80;71.20;;;;;;4935849;29;20127;-72
2021/08/25 07:41:40;;;;;;;13.30;12.35;;;18.80;72.00;;;;;;4932806;29;20127;-73
2021/08/25 07:44:12;;;;;;;13.30;12.10;;;18.70;70.80;;;;;;4933978;29;20056;-72
2021/08/25 07:46:43;;;;;;;12.88;11.93;;;18.70;70.90;;;;;;4932916;29;20504;-72
2021/08/25 07:49:15;;;;;;;13.35;12.35;;;18.70;70.70;;;;;;4935339;29;20054;-72
2021/08/25 07:51:48;;;;;;;12.98;12.07;;;18.80;71.30;;;;;;4931932;29;20079;-72
2021/08/25 07:54:20;;;;;;;13.57;12.48;;;18.80;71.50;;;;;;4934704;29;20158;-72
2021/08/25 07:56:51;;;;;;;12.32;11.43;;;18.80;71.20;;;;;;4934351;29;20877;-71
2021/08/25 07:59:23;;;;;;;12.35;11.45;;;18.70;71.00;;;;;;4933157;29;20054;-72
2021/08/25 08:01:55;;;;;;;12.30;11.40;;;18.60;71.20;;;;;;4933375;29;20066;-72
2021/08/25 08:04:28;;;;;;;12.10;11.20;;;18.50;70.30;;;;;;4932654;29;20058;-71
2021/08/25 08:07:00;;;;;;;12.35;11.45;;;18.60;71.00;;;;;;4934268;29;20048;-71
2021/08/25 08:09:31;;;;;;;12.52;11.52;;;18.60;70.30;;;;;;4934302;29;20642;-73
2021/08/25 08:12:04;;;;;;;12.68;11.77;;;18.60;71.00;;;;;;4933342;29;20081;-71
2021/08/25 08:14:36;;;;;;;12.23;11.32;;;18.60;70.50;;;;;;4932940;29;20070;-73
2021/08/25 08:17:08;;;;;;;12.32;11.23;;;18.60;70.60;;;;;;4932198;29;20140;-73
2021/08/25 08:19:40;;;;;;;12.10;11.20;;;18.60;68.20;;;;;;4933887;29;20138;-72
2021/08/25 08:22:11;;;;;;;12.40;11.48;;;18.50;70.40;;;;;;4932130;29;20132;-71
2021/08/25 08:24:44;;;;;;;12.52;11.52;;;18.60;70.70;;;;;;4935784;29;20498;-72
2021/08/25 08:27:15;;;;;;;12.82;11.82;;;18.60;71.00;;;;;;4935258;29;20142;-71
2021/08/25 08:29:47;;;;;;;12.18;11.27;;;18.50;71.10;;;;;;4932543;29;20194;-73
2021/08/25 08:32:19;;;;;;;12.32;11.43;;;18.50;69.20;;;;;;4933047;29;20134;-72
2021/08/25 08:34:51;;;;;;;13.20;12.20;;;18.50;71.50;;;;;;4936599;29;20055;-72
2021/08/25 08:37:23;;;;;;;12.55;11.52;;;18.40;71.40;;;;;;4937419;29;20424;-73
2021/08/25 08:39:55;;;;;;;12.00;11.10;;;18.40;71.70;;;;;;4939238;29;20062;-72
2021/08/25 08:42:31;;;;;;;12.10;11.20;;;18.50;72.00;;;;;;4936918;29;20047;-73
2021/08/25 08:45:04;;;;;;;12.50;11.57;;;18.60;70.90;;;;;;4936609;29;20489;-71
2021/08/25 08:47:37;;;;;;;12.05;11.15;;;18.60;71.70;;;;;;4937819;29;20054;-72
2021/08/25 08:50:09;;;;;;;12.18;11.07;;;18.70;72.20;;;;;;4937610;29;20135;-73
2021/08/25 08:52:41;;;;;;;11.82;10.93;;;18.80;72.10;;;;;;4938038;29;20065;-73
2021/08/25 08:55:13;;;;;;;12.30;11.40;;;18.80;69.50;;;;;;4937416;29;20041;-72
2021/08/25 08:57:45;;;;;;;11.82;10.93;;;18.80;72.30;;;;;;4933762;29;20108;-73
2021/08/25 09:00:17;;;;;;;12.25;11.30;;;18.80;73.10;;;;;;4937523;29;20050;-73
2021/08/25 09:02:49;;;;;;;12.80;11.70;;;18.80;72.30;;;;;;4936475;29;20051;-73
2021/08/25 09:05:23;;;;;;;12.25;11.35;;;18.80;70.40;;;;;;4935528;29;20082;-73
2021/08/25 09:07:58;;;;;;;11.98;11.07;;;18.80;70.80;;;;;;4943489;29;20146;-73
2021/08/25 09:10:37;;;;;;;12.38;11.48;;;18.80;72.00;;;;;;4936412;29;20055;-73
2021/08/25 09:13:11;;;;;;;12.60;11.70;;;18.80;69.10;;;;;;4937474;29;20065;-73
2021/08/25 09:15:43;;;;;;;12.82;11.93;;;18.90;71.60;;;;;;4934451;29;20063;-72
2021/08/25 09:18:18;;;;;;;12.30;11.40;;;18.90;71.50;;;;;;4936231;29;20065;-73
2021/08/25 09:20:53;;;;;;;12.43;11.48;;;18.90;71.60;;;;;;4936067;29;20120;-73
2021/08/25 09:23:28;;;;;;;12.98;11.88;;;19.00;71.10;;;;;;4935404;29;20073;-73
2021/08/25 09:26:05;;;;;;;12.50;11.60;;;19.10;70.40;;;;;;4936194;29;20182;-73
2021/08/25 09:28:38;;;;;;;12.88;11.88;;;19.10;70.50;;;;;;4938278;29;20054;-72
2021/08/25 09:31:14;;;;;;;13.07;12.07;;;19.20;71.20;;;;;;4937138;29;20051;-73
2021/08/25 09:33:48;;;;;;;12.23;11.32;;;19.30;69.60;;;;;;4935219;29;20063;-73
2021/08/25 09:36:20;;;;;;;12.57;11.68;;;19.30;71.90;;;;;;4935130;29;20583;-73
2021/08/25 09:38:54;;;;;;;12.45;11.45;;;19.40;70.60;;;;;;4937816;29;20664;-73
2021/08/25 09:41:26;;;;;;;12.85;11.75;;;19.40;69.10;;;;;;4936290;29;20055;-73
2021/08/25 09:44:14;;;;;;;12.98;11.93;;;19.50;69.50;;;;;;4936335;29;20678;-72
2021/08/25 09:47:02;;;;;;;12.30;11.40;;;19.40;69.30;;;;;;4934359;29;20124;-73
2021/08/25 09:49:40;;;;;;;12.55;11.65;;;19.40;68.90;;;;;;4938121;29;20035;-72
2021/08/25 09:52:33;;;;;;;12.07;11.18;;;19.50;68.80;;;;;;4933013;29;20092;-72
2021/08/25 09:55:05;;;;;;;12.52;11.63;;;19.70;70.40;;;;;;4935335;29;20063;-72
2021/08/25 09:57:40;;;;;;;12.45;11.55;;;19.80;69.60;;;;;;4933030;29;20135;-72
2021/08/25 10:00:13;;;;;;;13.50;12.50;;;19.90;71.40;;;;;;4934895;29;20047;-72
2021/08/25 10:02:45;;;;;;;12.77;11.82;;;20.00;66.80;;;;;;4935508;29;20063;-73
2021/08/25 10:05:25;;;;;;;13.90;12.80;;;20.00;69.30;;;;;;4936151;29;20062;-72
2021/08/25 10:07:57;;;;;;;13.48;12.45;;;20.10;70.40;;;;;;4934056;29;20136;-72
2021/08/25 10:10:29;;;;;;;13.38;12.38;;;20.20;66.30;;;;;;4936675;29;20506;-72
2021/08/25 10:13:02;;;;;;;13.30;12.30;;;19.90;69.40;;;;;;4935658;29;20055;-73
2021/08/25 10:15:35;;;;;;;13.50;12.40;;;20.00;70.20;;;;;;4934074;29;20128;-72
2021/08/25 10:18:26;;;;;;;13.48;12.48;;;20.00;69.40;;;;;;4936911;29;20097;-72
2021/08/25 10:21:00;;;;;;;13.80;12.80;;;20.20;69.90;;;;;;4934962;29;20073;-73
2021/08/25 10:24:04;;;;;;;13.80;12.80;;;20.40;70.40;;;;;;4933830;29;20051;-72
2021/08/25 10:26:57;;;;;;;13.95;12.50;;;20.50;65.90;;;;;;4934371;29;20059;-72
2021/08/25 10:29:29;;;;;;;13.13;12.15;;;20.40;69.10;;;;;;4933995;29;20090;-72
2021/08/25 10:32:01;;;;;;;12.98;12.07;;;20.40;69.00;;;;;;4935445;29;20133;-73
2021/08/25 10:34:38;;;;;;;13.88;12.88;;;20.50;69.40;;;;;;4934883;29;20155;-73
2021/08/25 10:37:10;;;;;;;12.98;12.07;;;20.50;66.30;;;;;;4932523;29;20119;-73
2021/08/25 10:39:43;;;;;;;13.70;12.70;;;20.50;68.90;;;;;;4934979;29;20058;-72
2021/08/25 10:42:15;;;;;;;13.93;12.82;;;20.50;67.50;;;;;;4933927;29;20048;-73
2021/08/25 10:44:47;;;;;;;13.38;12.30;;;20.60;67.90;;;;;;4935699;29;20063;-73
2021/08/25 10:47:58;;;;;;;14.02;13.02;;;20.60;67.00;;;;;;4933590;29;20051;-72
2021/08/25 10:50:52;;;;;;;13.13;12.15;;;20.60;66.80;;;;;;4937165;29;20142;-73
2021/08/25 10:53:31;;;;;;;12.68;11.75;;;20.60;67.30;;;;;;4934707;29;20146;-73
2021/08/25 10:56:26;;;;;;;14.32;13.23;;;20.70;67.30;;;;;;4933613;29;20055;-73
2021/08/25 10:59:03;;;;;;;14.02;12.93;;;20.70;67.00;;;;;;4940851;29;20051;-73
2021/08/25 11:01:35;;;;;;;13.77;12.77;;;20.70;64.90;;;;;;4934008;29;20138;-73
2021/08/25 11:04:15;;;;;;;14.55;13.55;;;20.70;67.30;;;;;;4933770;29;20140;-74
2021/08/25 11:06:56;;;;;;;13.80;12.80;;;20.70;65.30;;;;;;4932849;29;20052;-72
2021/08/25 11:09:41;;;;;;;13.90;12.77;;;20.70;65.00;;;;;;4934098;29;20043;-74
2021/08/25 11:12:15;;;;;;;13.52;12.52;;;20.70;64.50;;;;;;4934510;29;20047;-73
2021/08/25 11:14:54;;;;;;;14.00;13.00;;;20.90;63.20;;;;;;4933453;29;20047;-73
2021/08/25 11:17:27;;;;;;;13.82;12.82;;;21.00;64.60;;;;;;4934464;29;20162;-73
2021/08/25 11:20:05;;;;;;;13.70;12.70;;;21.00;63.80;;;;;;4933186;29;20130;-74
2021/08/25 11:22:44;;;;;;;13.65;12.65;;;20.90;62.50;;;;;;4933802;29;20079;-74
2021/08/25 11:25:17;;;;;;;14.45;13.38;;;21.00;63.30;;;;;;4932796;29;20507;-73
2021/08/25 11:27:51;;;;;;;14.23;13.20;;;20.90;62.90;;;;;;4932170;29;20153;-73
2021/08/25 11:30:28;;;;;;;13.30;12.35;;;20.90;63.30;;;;;;4932162;29;20050;-73
2021/08/25 11:33:09;;;;;;;13.90;12.73;;;20.90;64.30;;;;;;4932894;29;20529;-74
2021/08/25 11:35:45;;;;;;;;;;;21.00;64.20;;;;;;4935446;29;20154;-72
2021/08/25 11:38:18;;;;;;;13.52;12.52;;;21.20;63.70;;;;;;4934688;29;19929;-70
2021/08/25 11:40:50;;;;;;;13.52;12.52;;;21.20;64.60;;;;;;4931396;29;20082;-72
2021/08/25 11:43:24;;;;;;;12.95;12.05;;;21.50;61.40;;;;;;4941142;29;20055;-72
2021/08/25 11:45:56;;;;;;;13.35;12.35;;;21.70;62.50;;;;;;4932353;29;20116;-72
2021/08/25 11:48:29;;;;;;;13.65;12.68;;;21.70;62.20;;;;;;4930528;29;20423;-70
2021/08/25 11:51:02;;;;;;;13.88;12.85;;;21.80;60.00;;;;;;4934616;29;20142;-71
2021/08/25 11:53:38;;;;;;;12.70;11.80;;;22.00;60.20;;;;;;4933771;29;20577;-70
2021/08/25 11:56:10;;;;;;;13.25;12.15;;;22.00;60.00;;;;;;4933032;29;20055;-70
2021/08/25 11:58:42;;;;;;;13.20;12.30;;;22.10;60.20;;;;;;4932838;29;20134;-72
2021/08/25 12:01:22;;;;;;;13.13;12.23;;;22.30;60.10;;;;;;4933713;29;20778;-72
2021/08/25 12:03:54;;;;;;;13.63;12.63;;;22.40;59.40;;;;;;4935518;29;20189;-71
2021/08/25 12:06:43;;;;;;;14.15;13.15;;;22.20;59.10;;;;;;4930961;29;20059;-71
2021/08/25 12:09:32;;;;;;;13.73;12.57;;;22.20;59.90;;;;;;4933832;29;20078;-70
2021/08/25 12:12:04;;;;;;;13.65;12.57;;;22.20;59.90;;;;;;4933366;29;20598;-70
2021/08/25 12:14:54;;;;;;;13.40;12.40;;;21.90;60.40;;;;;;4933416;29;20101;-72
2021/08/25 12:17:26;;;;;;;12.75;11.85;;;22.10;60.50;;;;;;4933509;29;20262;-72
2021/08/25 12:20:00;;;;;;;12.93;11.93;;;22.30;60.00;;;;;;4931007;29;20051;-71
2021/08/25 12:22:32;;;;;;;13.90;12.90;;;22.50;60.10;;;;;;4931073;29;20063;-71
2021/08/25 12:25:05;;;;;;;13.55;12.55;;;22.80;59.60;;;;;;4930925;29;20065;-71
2021/08/25 12:27:43;;;;;;;13.65;12.65;;;22.80;58.30;;;;;;4932010;29;20059;-72
2021/08/25 12:30:36;;;;;;;13.50;12.60;;;22.70;56.60;;;;;;4934791;29;20422;-72
2021/08/25 12:33:15;;;;;;;14.10;13.00;;;22.80;59.70;;;;;;4935953;29;20043;-71
2021/08/25 12:35:46;;;;;;;14.20;13.10;;;22.90;59.00;;;;;;4933133;29;20162;-72
2021/08/25 12:38:30;;;;;;;14.38;13.38;;;22.90;57.30;;;;;;4935607;29;20056;-73
2021/08/25 12:41:02;;;;;;;13.20;12.30;;;22.90;57.30;;;;;;4931668;29;20146;-72
2021/08/25 12:43:34;;;;;;;14.00;13.00;;;23.00;56.10;;;;;;4933413;29;20043;-72
2021/08/25 12:46:06;;;;;;;13.98;12.88;;;22.80;55.90;;;;;;4930020;29;20063;-71
2021/08/25 12:48:38;;;;;;;14.07;13.07;;;22.90;57.50;;;;;;4925594;30;20442;-73
2021/08/25 12:51:10;;;;;;;13.50;12.50;;;23.00;57.50;;;;;;4934315;29;20514;-72
2021/08/25 12:53:42;;;;;;;13.68;12.68;;;23.00;56.90;;;;;;4933223;29;20143;-72
2021/08/25 12:56:15;;;;;;;13.85;12.85;;;23.00;57.70;;;;;;4932157;29;20146;-72
2021/08/25 12:58:47;;;;;;;14.23;13.23;;;23.10;58.10;;;;;;4932751;29;20047;-73
2021/08/25 13:01:19;;;;;;;13.88;12.88;;;23.10;56.90;;;;;;4934159;29;20044;-71